Time;durP1;ratioP1;P1;durP2;ratioP2;P2;SDS_P1;SDS_P2;PMS_P1;PMS_P2;Temp;Humidity;BMP_temperature;BMP_pressure;BME280_temperature;BME280_humidity;BME280_pressure;Samples;Min_cycle;Max_cycle;Signal;HPM_P1;HPM_P2
2021/12/17 00:00:22;;;;;;;67.53;33.53;;;;;;;7.41;100.00;103912.38;5055695;28;20053;-55
2021/12/17 00:05:51;;;;;;;66.95;33.63;;;;;;;7.45;100.00;103911.75;5055958;28;20033;-56
2021/12/17 00:08:20;;;;;;;62.00;30.92;;;;;;;7.45;100.00;103908.16;5055354;28;20033;-55
2021/12/17 00:10:47;;;;;;;65.22;31.83;;;;;;;7.43;100.00;103908.34;5055074;28;20016;-58
2021/12/17 00:13:12;;;;;;;69.25;32.00;;;;;;;7.46;100.00;103912.63;5055485;28;20029;-55
2021/12/17 00:15:39;;;;;;;66.63;31.95;;;;;;;7.44;100.00;103904.53;5055114;28;20028;-55
2021/12/17 00:18:16;;;;;;;69.82;31.80;;;;;;;7.42;100.00;103905.81;5055603;28;20127;-57
2021/12/17 00:53:16;;;;;;;69.93;32.97;;;;;;;7.32;100.00;103898.81;5055086;28;20471;-56
2021/12/17 00:55:41;;;;;;;70.80;34.63;;;;;;;7.31;100.00;103902.63;5053863;28;20025;-56
2021/12/17 00:58:06;;;;;;;81.05;35.00;;;;;;;7.33;100.00;103906.00;5054248;28;20499;-56
2021/12/17 01:00:32;;;;;;;79.13;34.50;;;;;;;7.33;100.00;103905.16;5054750;28;20029;-56
2021/12/17 01:02:57;;;;;;;78.05;33.47;;;;;;;7.31;100.00;103908.13;5054843;28;20029;-57
2021/12/17 01:05:26;;;;;;;78.30;36.25;;;;;;;7.27;100.00;103894.97;5054911;28;20032;-57
2021/12/17 01:07:54;;;;;;;77.22;36.25;;;;;;;7.31;100.00;103910.88;5054942;28;20480;-57
2021/12/17 01:10:30;;;;;;;79.90;36.42;;;;;;;7.25;100.00;103888.81;5054823;28;20444;-56
2021/12/17 01:12:56;;;;;;;77.22;35.05;;;;;;;7.28;100.00;103892.00;5053907;28;20041;-55
2021/12/17 01:15:22;;;;;;;81.38;35.05;;;;;;;7.24;100.00;103895.38;5053642;28;20041;-54
2021/12/17 01:17:51;;;;;;;77.53;33.90;;;;;;;7.23;100.00;103891.78;5053058;28;20025;-54
2021/12/17 01:23:20;;;;;;;79.03;34.72;;;;;;;7.28;100.00;103886.50;5054631;28;20040;-55
2021/12/17 01:36:44;;;;;;;76.82;35.22;;;;;;;7.20;100.00;103886.69;5054545;28;20036;-56
2021/12/17 01:42:07;;;;;;;83.90;34.63;;;;;;;7.21;100.00;103879.31;5052954;28;20043;-56
2021/12/17 01:44:34;;;;;;;83.60;35.72;;;;;;;7.17;100.00;103871.44;5053548;28;20041;-55
2021/12/17 01:47:00;;;;;;;81.00;35.72;;;;;;;7.18;100.00;103877.78;5053870;28;20028;-57
2021/12/17 02:00:12;;;;;;;85.53;35.63;;;;;;;7.25;100.00;103881.44;5053413;28;20123;-55
2021/12/17 02:02:42;;;;;;;87.32;36.28;;;;;;;7.22;100.00;103887.34;5052809;28;20029;-56
2021/12/17 02:05:09;;;;;;;83.43;36.03;;;;;;;7.20;100.00;103891.38;5053347;28;20058;-56
2021/12/17 02:07:34;;;;;;;81.07;35.55;;;;;;;7.17;100.00;103884.38;5053639;28;20021;-58
2021/12/17 02:10:31;;;;;;;88.05;37.45;;;;;;;7.17;100.00;103876.13;5053272;28;20361;-57
2021/12/17 02:29:01;;;;;;;85.18;36.47;;;;;;;7.12;100.00;103892.41;5052394;28;20043;-56
2021/12/17 02:31:32;;;;;;;96.82;37.60;;;;;;;7.15;100.00;103887.31;5053304;28;20092;-57
2021/12/17 02:34:03;;;;;;;89.47;36.92;;;;;;;7.17;100.00;103900.91;5053037;28;20025;-57
2021/12/17 02:36:32;;;;;;;101.20;38.10;;;;;;;7.20;100.00;103899.63;5053689;28;20029;-57
2021/12/17 02:39:21;;;;;;;94.43;38.13;;;;;;;7.20;100.00;103905.97;5053159;28;20036;-57
2021/12/17 02:47:12;;;;;;;97.10;38.72;;;;;;;7.14;100.00;103898.56;5053418;28;20102;-57
2021/12/17 02:49:42;;;;;;;100.60;39.40;;;;;;;7.12;100.00;103907.03;5053186;28;20025;-57
2021/12/17 02:52:08;;;;;;;100.88;40.20;;;;;;;7.08;100.00;103894.72;5053166;28;20029;-55
2021/12/17 02:54:36;;;;;;;98.25;39.95;;;;;;;7.07;100.00;103894.94;5052499;28;20499;-55
2021/12/17 02:57:03;;;;;;;95.00;38.63;;;;;;;7.08;100.00;103891.13;5051534;28;20021;-56
2021/12/17 02:59:28;;;;;;;96.53;39.63;;;;;;;7.08;100.00;103891.13;5052182;28;20028;-56
2021/12/17 03:01:56;;;;;;;94.30;39.83;;;;;;;7.05;100.00;103897.03;5052910;28;20379;-56
2021/12/17 03:04:22;;;;;;;92.82;37.42;;;;;;;7.07;100.00;103901.28;5052671;28;20072;-56
2021/12/17 03:06:47;;;;;;;87.60;36.58;;;;;;;7.07;100.00;103898.53;5053095;28;20413;-54
2021/12/17 03:09:12;;;;;;;94.97;38.53;;;;;;;7.03;100.00;103898.09;5052622;28;20029;-55
2021/12/17 03:11:38;;;;;;;95.25;39.38;;;;;;;7.02;100.00;103901.06;5050841;28;20021;-54
2021/12/17 03:14:03;;;;;;;87.78;37.53;;;;;;;7.01;100.00;103888.34;5055660;28;20021;-54
2021/12/17 03:16:35;;;;;;;98.97;38.65;;;;;;;7.00;100.00;103893.00;5055858;28;20082;-57
2021/12/17 03:19:23;;;;;;;93.18;37.03;;;;;;;7.01;100.00;103893.88;5056313;28;20029;-54
2021/12/17 03:24:32;;;;;;;96.18;37.05;;;;;;;7.00;100.00;103901.25;5056935;28;20404;-56
2021/12/17 03:26:58;;;;;;;92.65;37.30;;;;;;;6.99;100.00;103896.81;5056571;28;20018;-55
2021/12/17 03:29:23;;;;;;;91.63;38.95;;;;;;;6.97;100.00;103900.81;5055612;28;20396;-55
2021/12/17 03:31:48;;;;;;;91.25;36.40;;;;;;;6.94;100.00;103891.09;5056210;28;20070;-54
2021/12/17 03:34:17;;;;;;;89.15;35.42;;;;;;;6.94;100.00;103880.06;5056286;28;20029;-55
2021/12/17 03:36:42;;;;;;;87.60;34.75;;;;;;;6.95;100.00;103886.41;5057066;28;20025;-55
2021/12/17 03:39:08;;;;;;;91.38;35.67;;;;;;;6.99;100.00;103890.47;5055662;28;20021;-55
2021/12/17 03:41:37;;;;;;;89.68;34.53;;;;;;;6.99;100.00;103896.81;5056131;28;20074;-56
2021/12/17 03:44:05;;;;;;;93.38;35.70;;;;;;;6.91;100.00;103887.91;5055721;28;20131;-55
2021/12/17 03:46:31;;;;;;;97.35;33.97;;;;;;;6.96;100.00;103896.38;5055929;28;20048;-55
2021/12/17 03:48:57;;;;;;;93.82;36.28;;;;;;;6.94;100.00;103893.00;5056284;28;20025;-55
2021/12/17 03:51:23;;;;;;;88.53;34.05;;;;;;;6.94;100.00;103896.59;5056144;28;20017;-55
2021/12/17 03:53:54;;;;;;;90.40;33.53;;;;;;;6.91;100.00;103890.66;5056472;28;20464;-57
2021/12/17 03:56:20;;;;;;;79.63;31.45;;;;;;;6.97;100.00;103903.56;5054913;28;20104;-57
2021/12/17 03:58:45;;;;;;;87.32;33.80;;;;;;;6.96;100.00;103890.88;5055943;28;20060;-56
2021/12/17 04:01:11;;;;;;;76.95;32.05;;;;;;;6.97;100.00;103896.19;5055276;28;20083;-55
2021/12/17 04:03:37;;;;;;;82.50;33.55;;;;;;;7.00;100.00;103890.25;5055614;28;20066;-55
2021/12/17 04:06:03;;;;;;;82.43;31.27;;;;;;;7.01;100.00;103891.09;5054576;28;20025;-55
2021/12/17 04:08:29;;;;;;;85.03;32.13;;;;;;;6.99;100.00;103893.22;5053907;28;20025;-55
2021/12/17 04:11:02;;;;;;;82.50;31.48;;;;;;;6.97;100.00;103896.19;5055611;28;20029;-55
2021/12/17 04:13:33;;;;;;;84.65;30.73;;;;;;;7.01;100.00;103891.94;5054682;28;20029;-57
2021/12/17 04:16:06;;;;;;;78.80;31.33;;;;;;;7.04;100.00;103893.44;5055103;28;20040;-55
2021/12/17 04:18:33;;;;;;;;;;;;;;;7.09;100.00;103893.66;5056360;28;20025;-55
2021/12/17 04:21:00;;;;;;;77.03;29.58;;;;;;;7.02;100.00;103895.56;5055475;28;20433;-55
2021/12/17 04:23:26;;;;;;;73.63;29.25;;;;;;;7.01;100.00;103891.94;5055145;28;20036;-55
2021/12/17 04:25:52;;;;;;;75.15;28.92;;;;;;;6.99;100.00;103896.81;5054864;28;20029;-55
2021/12/17 04:28:18;;;;;;;79.63;30.35;;;;;;;6.97;100.00;103900.81;5055488;28;20079;-55
2021/12/17 04:30:45;;;;;;;78.85;29.25;;;;;;;6.92;100.00;103893.19;5055143;28;20483;-54
2021/12/17 04:33:12;;;;;;;84.97;31.08;;;;;;;6.91;100.00;103891.47;5055313;28;20437;-55
2021/12/17 04:35:39;;;;;;;69.05;27.90;;;;;;;6.92;100.00;103884.09;5054903;28;20025;-55
2021/12/17 04:38:06;;;;;;;71.95;28.02;;;;;;;6.94;100.00;103885.56;5055171;28;20036;-55
2021/12/17 04:40:32;;;;;;;78.35;28.70;;;;;;;6.93;100.00;103891.31;5055019;28;20107;-55
2021/12/17 04:43:32;;;;;;;79.53;27.63;;;;;;;6.87;100.00;103884.72;5055334;28;20136;-55
2021/12/17 04:46:02;;;;;;;73.07;27.92;;;;;;;6.90;100.00;103892.53;5055485;28;20464;-56
2021/12/17 04:59:23;;;;;;;77.32;27.42;;;;;;;7.00;100.00;103883.91;5055054;28;20072;-56
2021/12/17 05:01:49;;;;;;;66.40;26.90;;;;;;;7.02;100.00;103876.28;5055073;28;20021;-56
2021/12/17 05:04:14;;;;;;;71.30;27.67;;;;;;;7.01;100.00;103891.09;5054104;28;20460;-56
2021/12/17 05:06:39;;;;;;;70.32;28.73;;;;;;;7.01;100.00;103885.59;5054806;28;20056;-56
2021/12/17 05:09:18;;;;;;;69.43;27.27;;;;;;;6.98;100.00;103886.88;5054631;28;20024;-56
2021/12/17 05:19:50;;;;;;;60.53;23.97;;;;;;;6.93;100.00;103894.88;5054510;28;19955;-55
2021/12/17 05:22:17;;;;;;;66.40;25.77;;;;;;;6.92;100.00;103890.44;5053981;28;20677;-56
2021/12/17 05:24:43;;;;;;;61.05;24.75;;;;;;;6.94;100.00;103895.75;5054170;28;20021;-56
2021/12/17 05:27:09;;;;;;;59.47;26.00;;;;;;;6.94;100.00;103899.34;5053861;28;20029;-56
2021/12/17 05:29:34;;;;;;;63.35;23.23;;;;;;;6.92;100.00;103893.19;5054404;28;20033;-57
2021/12/17 05:31:59;;;;;;;66.18;24.60;;;;;;;6.92;100.00;103898.69;5054277;28;20025;-55
2021/12/17 05:34:24;;;;;;;62.42;24.27;;;;;;;6.91;100.00;103897.00;5054555;28;20039;-56
2021/12/17 05:36:50;;;;;;;62.30;24.27;;;;;;;6.90;100.00;103903.53;5053181;28;20052;-55
2021/12/17 05:39:15;;;;;;;60.45;23.90;;;;;;;6.92;100.00;103895.94;5053533;28;20549;-55
2021/12/17 05:41:41;;;;;;;60.45;23.88;;;;;;;6.94;100.00;103899.34;5053123;28;20033;-55
2021/12/17 05:44:06;;;;;;;53.50;22.10;;;;;;;6.96;100.00;103894.47;5054349;28;20053;-56
2021/12/17 05:47:05;;;;;;;54.55;21.58;;;;;;;6.98;100.00;103895.13;5054193;28;20028;-54
2021/12/17 05:49:25;;;;;;;50.63;21.50;;;;;;;6.96;100.00;103888.97;5053645;28;20047;-55
2021/12/17 05:51:52;;;;;;;54.20;20.95;;;;;;;7.03;100.00;103897.25;5053531;28;20108;-54
2021/12/17 05:54:18;;;;;;;50.58;19.52;;;;;;;7.03;100.00;103900.00;5053519;28;20449;-54
2021/12/17 05:56:43;;;;;;;49.95;21.25;;;;;;;7.06;100.00;103912.50;5053362;28;20070;-55
2021/12/17 05:59:09;;;;;;;51.38;19.77;;;;;;;7.05;100.00;103914.41;5052437;28;20464;-55
2021/12/17 06:01:35;;;;;;;52.55;20.50;;;;;;;7.03;100.00;103911.88;5053353;28;20131;-54
2021/12/17 06:04:01;;;;;;;51.20;20.65;;;;;;;7.04;100.00;103915.44;5053229;28;20028;-55
2021/12/17 06:06:35;;;;;;;49.35;19.83;;;;;;;7.00;100.00;103909.50;5053192;28;20041;-55
2021/12/17 06:09:03;;;;;;;;;;;;;;;7.10;100.00;103908.28;5053634;28;20495;-55
2021/12/17 06:11:29;;;;;;;46.63;18.95;;;;;;;7.02;100.00;103918.41;5052826;28;19967;-55
2021/12/17 06:13:54;;;;;;;49.15;19.13;;;;;;;6.99;100.00;103912.47;5052924;28;20052;-55
2021/12/17 06:16:19;;;;;;;46.78;18.98;;;;;;;6.97;100.00;103922.84;5052909;28;20385;-56
2021/12/17 06:18:44;;;;;;;45.80;19.00;;;;;;;6.95;100.00;103920.31;5053597;28;20029;-56
2021/12/17 06:21:10;;;;;;;48.45;17.83;;;;;;;6.94;100.00;103920.53;5052976;28;20029;-56
2021/12/17 06:23:36;;;;;;;43.83;17.83;;;;;;;6.95;100.00;103925.81;5052900;28;20036;-56
2021/12/17 06:26:01;;;;;;;47.58;17.95;;;;;;;6.92;100.00;103926.22;5053008;28;20025;-55
2021/12/17 06:28:26;;;;;;;46.63;18.58;;;;;;;6.91;100.00;103932.75;5053025;28;20495;-55
2021/12/17 06:30:51;;;;;;;48.20;18.92;;;;;;;6.90;100.00;103933.81;5052820;28;20029;-57
2021/12/17 06:33:17;;;;;;;45.25;18.63;;;;;;;6.89;100.00;103929.41;5052562;28;20509;-54
2021/12/17 06:35:42;;;;;;;40.50;17.00;;;;;;;6.90;100.00;103924.72;5052553;28;20035;-56
2021/12/17 06:38:07;;;;;;;44.83;18.52;;;;;;;6.92;100.00;103925.38;5051355;28;20029;-56
2021/12/17 06:40:33;;;;;;;42.42;17.83;;;;;;;6.91;100.00;103929.19;5052310;28;20025;-57
2021/12/17 06:42:58;;;;;;;42.17;17.85;;;;;;;6.90;100.00;103925.56;5052958;28;20052;-56
2021/12/17 06:45:40;;;;;;;45.53;17.42;;;;;;;6.88;100.00;103924.94;5052697;28;20036;-55
2021/12/17 06:48:05;;;;;;;44.05;17.73;;;;;;;6.90;100.00;103924.72;5052490;28;20443;-56
2021/12/17 06:58:53;;;;;;;44.90;18.63;;;;;;;6.84;100.00;103919.00;5052824;28;20045;-55
2021/12/17 07:05:56;;;;;;;44.80;19.47;;;;;;;6.83;100.00;103925.56;5053178;28;20087;-56
2021/12/17 07:17:40;;;;;;;44.90;17.45;;;;;;;6.84;100.00;103931.91;5052936;28;20408;-56
2021/12/17 07:20:53;;;;;;;44.60;20.13;;;;;;;6.84;100.00;103932.75;5052896;28;20037;-55
2021/12/17 07:30:38;;;;;;;43.40;17.48;;;;;;;6.92;100.00;103922.63;5040443;28;20112;-55
2021/12/17 07:34:50;;;;;;;41.88;16.98;;;;;;;6.93;100.00;103916.91;5053155;28;20051;-54
2021/12/17 07:39:40;;;;;;;43.05;18.10;;;;;;;6.93;100.00;103916.91;5052981;28;20033;-56
2021/12/17 07:42:06;;;;;;;42.03;18.67;;;;;;;6.91;100.00;103918.16;5052523;28;20112;-57
2021/12/17 07:44:32;;;;;;;42.60;17.52;;;;;;;6.90;100.00;103914.56;5052462;28;20028;-54
2021/12/17 07:46:57;;;;;;;43.53;17.92;;;;;;;6.92;100.00;103906.09;5052249;28;20417;-56
2021/12/17 07:49:22;;;;;;;44.58;18.30;;;;;;;6.95;100.00;103905.69;5052575;28;20017;-55
2021/12/17 07:51:48;;;;;;;38.45;16.58;;;;;;;6.94;100.00;103907.59;5052731;28;20028;-56
2021/12/17 07:54:13;;;;;;;43.95;18.30;;;;;;;6.92;100.00;103920.72;5052587;28;20448;-56
2021/12/17 07:56:39;;;;;;;40.13;16.05;;;;;;;6.94;100.00;103917.78;5052729;28;20032;-56
2021/12/17 07:59:06;;;;;;;44.67;17.80;;;;;;;6.92;100.00;103917.13;5054381;28;20028;-57
2021/12/17 08:01:31;;;;;;;45.22;16.85;;;;;;;6.91;100.00;103916.25;5055487;28;20464;-57
2021/12/17 08:03:56;;;;;;;39.70;17.27;;;;;;;6.90;100.00;103910.97;5056235;28;20040;-55
2021/12/17 08:06:22;;;;;;;47.35;20.67;;;;;;;6.89;100.00;103917.53;5056119;28;20104;-56
2021/12/17 08:08:47;;;;;;;45.15;20.20;;;;;;;6.91;100.00;103932.75;5055816;28;20036;-55
2021/12/17 08:11:13;;;;;;;45.05;19.25;;;;;;;6.87;100.00;103940.59;5055859;28;20056;-56
2021/12/17 08:13:38;;;;;;;42.22;18.10;;;;;;;6.86;100.00;103933.38;5043970;28;20119;-55
2021/12/17 08:16:15;;;;;;;43.90;17.83;;;;;;;6.86;100.00;103944.41;5033559;28;20119;-55
2021/12/17 08:31:32;;;;;;;41.78;17.80;;;;;;;6.96;100.00;103940.41;5032138;28;20045;-54
2021/12/17 08:33:58;;;;;;;42.38;18.40;;;;;;;6.96;100.00;103943.16;5033528;28;20420;-54
2021/12/17 08:36:24;;;;;;;42.55;18.85;;;;;;;6.96;100.00;103943.16;5033468;28;20083;-54
2021/12/17 08:38:50;;;;;;;44.30;18.40;;;;;;;6.93;100.00;103949.94;5033535;28;20037;-54
2021/12/17 08:41:17;;;;;;;47.15;19.05;;;;;;;6.93;100.00;103952.69;5033451;28;20025;-55
2021/12/17 08:43:43;;;;;;;47.38;20.20;;;;;;;6.92;100.00;103947.41;5033341;28;20443;-54
2021/12/17 08:46:08;;;;;;;46.42;19.48;;;;;;;6.96;100.00;103949.53;5033368;28;20021;-54
2021/12/17 08:48:34;;;;;;;46.25;18.15;;;;;;;6.96;100.00;103940.41;5033343;28;20029;-54
2021/12/17 08:51:00;;;;;;;48.28;18.83;;;;;;;6.94;100.00;103943.38;5032817;28;20094;-56
2021/12/17 08:53:25;;;;;;;54.08;24.67;;;;;;;6.96;100.00;103940.41;5033139;28;20033;-55
2021/12/17 08:55:52;;;;;;;44.83;18.63;;;;;;;6.96;100.00;103937.66;5033088;28;20033;-54
2021/12/17 08:58:17;;;;;;;43.80;18.55;;;;;;;6.99;100.00;103940.00;5033069;28;20083;-54
2021/12/17 09:00:44;;;;;;;44.42;18.60;;;;;;;6.97;100.00;103936.59;5032877;28;20025;-55
2021/12/17 09:03:10;;;;;;;42.40;17.67;;;;;;;6.98;100.00;103936.41;5032379;28;20140;-55
2021/12/17 09:05:41;;;;;;;46.50;18.88;;;;;;;6.97;100.00;103937.47;5032893;28;20033;-55
2021/12/17 09:08:08;;;;;;;42.40;18.98;;;;;;;6.97;100.00;103947.63;5033043;28;20041;-56
2021/12/17 09:10:34;;;;;;;44.85;18.35;;;;;;;6.94;100.00;103954.38;5032292;28;20033;-54
2021/12/17 09:13:00;;;;;;;43.25;17.38;;;;;;;6.95;100.00;103968.97;5032740;28;20026;-55
2021/12/17 09:15:26;;;;;;;45.58;19.15;;;;;;;6.94;100.00;103967.31;5032722;28;20043;-54
2021/12/17 09:17:51;;;;;;;44.17;18.90;;;;;;;6.94;100.00;103967.31;5032630;28;20034;-55
2021/12/17 09:20:17;;;;;;;43.92;18.33;;;;;;;6.93;100.00;103979.38;5032567;28;20438;-58
2021/12/17 09:22:43;;;;;;;42.60;17.55;;;;;;;6.93;100.00;103974.72;5032662;28;20029;-56
2021/12/17 09:25:09;;;;;;;46.58;18.80;;;;;;;6.92;100.00;103983.19;5031053;28;20021;-54
2021/12/17 09:27:34;;;;;;;43.88;17.95;;;;;;;6.88;100.00;103985.50;5032790;28;20528;-54
2021/12/17 09:30:00;;;;;;;43.55;18.63;;;;;;;6.87;100.00;103975.53;5030923;28;20492;-53
2021/12/17 09:32:25;;;;;;;44.92;18.58;;;;;;;6.90;100.00;103975.09;5030513;28;20056;-56
2021/12/17 09:34:50;;;;;;;43.30;17.60;;;;;;;6.94;100.00;103972.81;5032197;28;20389;-55
2021/12/17 09:37:17;;;;;;;43.55;17.42;;;;;;;6.98;100.00;103968.59;5032410;28;20068;-56
2021/12/17 09:39:43;;;;;;;45.08;18.05;;;;;;;7.03;100.00;103979.84;5032251;28;20052;-56
2021/12/17 09:42:08;;;;;;;40.45;16.75;;;;;;;7.09;100.00;103972.63;5031639;28;20457;-57
2021/12/17 09:44:33;;;;;;;38.15;17.42;;;;;;;7.09;100.00;103978.16;5031572;28;20453;-58
2021/12/17 09:47:00;;;;;;;41.33;17.08;;;;;;;7.10;100.00;103980.72;5032126;28;20068;-57
2021/12/17 09:49:25;;;;;;;40.70;16.75;;;;;;;7.11;100.00;103984.31;5032083;28;20554;-56
2021/12/17 09:51:51;;;;;;;40.03;16.77;;;;;;;7.15;100.00;103988.34;5032096;28;20116;-57
2021/12/17 09:54:17;;;;;;;38.95;16.08;;;;;;;7.16;100.00;103996.41;5032092;28;20037;-57
2021/12/17 09:56:43;;;;;;;41.35;16.27;;;;;;;7.20;100.00;104005.09;5032001;28;20036;-56
2021/12/17 09:59:09;;;;;;;39.25;15.25;;;;;;;7.23;100.00;104001.94;5032058;28;20094;-57
2021/12/17 10:01:39;;;;;;;37.08;15.38;;;;;;;7.26;100.00;104000.69;5031954;28;20389;-57
2021/12/17 10:04:31;;;;;;;34.85;14.70;;;;;;;7.28;100.00;104004.91;5031571;28;20030;-56
2021/12/17 10:07:23;;;;;;;33.00;14.60;;;;;;;7.27;100.00;104017.00;5031277;28;20045;-56
2021/12/17 10:09:51;;;;;;;39.10;15.45;;;;;;;7.23;100.00;104012.97;5031444;28;20037;-56
2021/12/17 10:12:22;;;;;;;32.25;14.30;;;;;;;7.25;100.00;104010.84;5031610;28;20033;-56
2021/12/17 10:15:28;;;;;;;34.00;14.57;;;;;;;7.26;100.00;104014.44;5031702;28;20037;-56
2021/12/17 10:18:00;;;;;;;36.20;14.27;;;;;;;7.24;100.00;104011.03;5031260;28;20390;-57
2021/12/17 10:20:27;;;;;;;40.90;20.17;;;;;;;7.21;100.00;104009.56;5030391;28;20033;-58
2021/12/17 10:23:05;;;;;;;36.45;14.23;;;;;;;7.22;100.00;104011.25;5043337;28;20120;-55
2021/12/17 10:25:32;;;;;;;35.53;14.48;;;;;;;7.24;100.00;104013.78;5049268;28;20060;-55
2021/12/17 10:28:01;;;;;;;34.95;13.52;;;;;;;7.18;100.00;103990.69;5051144;28;20115;-56
2021/12/17 10:30:28;;;;;;;35.17;13.32;;;;;;;7.23;100.00;104001.06;5050915;28;20096;-56
2021/12/17 10:32:56;;;;;;;32.03;12.77;;;;;;;7.21;100.00;104001.28;5049589;28;20029;-56
2021/12/17 10:35:24;;;;;;;31.40;13.40;;;;;;;7.28;100.00;104009.59;5050675;28;20090;-57
2021/12/17 10:37:57;;;;;;;33.10;12.57;;;;;;;7.36;100.00;104011.31;5050102;28;20438;-57
2021/12/17 10:40:27;;;;;;;31.48;12.70;;;;;;;7.39;100.00;104014.50;5051271;28;20031;-57
2021/12/17 10:43:00;;;;;;;31.60;12.75;;;;;;;7.29;100.00;103994.75;5050899;28;20041;-57
2021/12/17 10:45:29;;;;;;;28.08;11.27;;;;;;;7.44;100.00;104008.38;5050728;28;20122;-56
2021/12/17 10:48:26;;;;;;;29.73;11.73;;;;;;;7.50;100.00;104010.28;5050797;28;20071;-57
2021/12/17 10:51:16;;;;;;;27.23;11.63;;;;;;;7.52;100.00;104013.69;5051229;28;20478;-57
2021/12/17 10:53:55;;;;;;;28.60;11.48;;;;;;;7.53;100.00;104015.41;5051033;28;20032;-57
2021/12/17 10:56:26;;;;;;;28.40;12.95;;;;;;;7.55;100.00;104018.81;5050396;28;20112;-57
2021/12/17 10:59:03;;;;;;;30.05;12.13;;;;;;;7.50;100.00;104007.53;5050962;28;20033;-57
2021/12/17 11:01:32;;;;;;;28.95;11.55;;;;;;;7.55;100.00;104020.69;5051008;28;20044;-57
2021/12/17 11:04:10;;;;;;;26.00;10.68;;;;;;;7.49;100.00;104014.97;5050894;28;20017;-57
2021/12/17 11:06:59;;;;;;;26.05;11.07;;;;;;;7.58;100.00;104020.28;5051207;28;20046;-59
2021/12/17 11:09:36;;;;;;;26.48;11.15;;;;;;;7.59;100.00;104020.06;5050653;28;20036;-58
2021/12/17 11:12:07;;;;;;;26.80;11.43;;;;;;;7.53;100.00;104015.41;5051711;28;20025;-57
2021/12/17 11:14:32;;;;;;;26.30;10.57;;;;;;;7.46;100.00;104009.88;5051428;28;20140;-57
2021/12/17 11:16:57;;;;;;;24.58;11.02;;;;;;;7.47;100.00;104016.22;5051591;28;20460;-57
2021/12/17 11:19:23;;;;;;;26.27;11.02;;;;;;;7.48;100.00;104015.16;5051053;28;20029;-57
2021/12/17 11:21:49;;;;;;;27.05;11.00;;;;;;;7.51;100.00;104011.16;5051008;28;20033;-57
2021/12/17 11:24:14;;;;;;;25.38;11.73;;;;;;;7.53;100.00;104007.13;5050782;28;20427;-57
2021/12/17 11:26:41;;;;;;;27.45;11.32;;;;;;;7.54;100.00;104008.84;5050550;28;20073;-56
2021/12/17 11:29:07;;;;;;;24.42;11.23;;;;;;;7.56;100.00;104005.88;5049313;28;20035;-56
2021/12/17 11:31:33;;;;;;;25.67;10.18;;;;;;;7.56;100.00;104003.94;5048719;28;20499;-57
2021/12/17 11:34:01;;;;;;;25.27;11.13;;;;;;;7.54;100.00;103996.94;5052258;28;20041;-56
2021/12/17 11:36:28;;;;;;;25.38;10.50;;;;;;;7.57;100.00;103989.13;5054321;28;20425;-56
2021/12/17 11:39:05;;;;;;;23.73;10.05;;;;;;;7.58;100.00;103985.31;5054432;28;20032;-57
2021/12/17 11:42:14;;;;;;;23.73;9.77;;;;;;;7.64;100.00;103980.88;5053586;28;20064;-56
2021/12/17 11:44:42;;;;;;;25.83;10.82;;;;;;;7.65;100.00;103983.41;5046703;28;20186;-56
2021/12/17 11:47:12;;;;;;;24.98;9.77;;;;;;;7.67;100.00;103976.84;5054463;28;20037;-56
2021/12/17 11:49:45;;;;;;;23.42;9.00;;;;;;;7.69;100.00;103970.09;5054498;28;20032;-56
2021/12/17 11:52:10;;;;;;;23.50;10.63;;;;;;;7.67;100.00;103974.94;5054271;28;20201;-56
2021/12/17 11:54:36;;;;;;;23.40;9.52;;;;;;;7.65;100.00;103980.66;5053700;28;20823;-58
2021/12/17 11:57:16;;;;;;;23.08;9.60;;;;;;;7.62;100.00;103971.97;5054301;28;20496;-56
2021/12/17 11:59:44;;;;;;;22.25;9.30;;;;;;;7.58;100.00;103971.53;5054131;28;20041;-56
2021/12/17 12:02:22;;;;;;;21.85;9.45;;;;;;;7.58;100.00;103989.97;5052631;28;20036;-56
2021/12/17 12:04:58;;;;;;;20.20;7.95;;;;;;;7.54;100.00;103988.69;5053808;28;20547;-56
2021/12/17 12:07:23;;;;;;;20.17;8.43;;;;;;;7.48;99.23;103979.34;5053892;28;20427;-56
2021/12/17 12:09:59;;;;;;;20.57;8.20;;;;;;;7.48;100.00;103988.47;5052432;28;20091;-56
2021/12/17 12:12:34;;;;;;;19.80;8.32;;;;;;;7.43;100.00;103981.88;5053939;28;20279;-57
2021/12/17 12:15:20;;;;;;;20.75;7.60;;;;;;;7.45;100.00;103983.38;5054331;28;20372;-56
2021/12/17 12:17:58;;;;;;;19.88;8.00;;;;;;;7.44;100.00;103989.09;5053852;28;20025;-56
2021/12/17 12:20:45;;;;;;;19.77;8.65;;;;;;;7.43;100.00;103992.91;5053909;28;20394;-56
2021/12/17 12:23:38;;;;;;;19.25;7.40;;;;;;;7.45;100.00;103985.28;5053769;28;20144;-56
2021/12/17 12:26:11;;;;;;;17.52;7.22;;;;;;;7.43;99.04;103985.47;5053672;28;20025;-56
2021/12/17 12:28:45;;;;;;;19.00;7.50;;;;;;;7.43;98.87;103977.22;5054093;28;20033;-56
2021/12/17 12:34:02;;;;;;;17.42;7.05;;;;;;;7.51;99.43;103972.59;5053800;28;20036;-56
2021/12/17 12:36:46;;;;;;;21.00;9.02;;;;;;;7.47;99.15;103975.75;5053299;28;20044;-57
2021/12/17 12:39:19;;;;;;;19.10;8.68;;;;;;;7.42;98.48;103977.44;5053470;28;20039;-56
2021/12/17 12:41:45;;;;;;;19.27;8.02;;;;;;;7.40;98.78;103985.91;5052988;28;20396;-56
2021/12/17 12:44:10;;;;;;;17.58;7.35;;;;;;;7.36;98.11;103984.63;5053147;28;20053;-57
2021/12/17 12:46:54;;;;;;;18.42;7.70;;;;;;;7.34;98.58;103976.56;5051707;28;20029;-56
2021/12/17 12:49:46;;;;;;;17.20;7.53;;;;;;;7.36;97.98;103973.59;5053330;28;20025;-56
2021/12/17 12:52:20;;;;;;;18.30;7.32;;;;;;;7.32;96.98;103980.59;5052937;28;20052;-58
2021/12/17 12:54:49;;;;;;;17.33;7.15;;;;;;;7.29;97.04;103979.06;5052879;28;20037;-57
2021/12/17 12:57:27;;;;;;;16.63;7.07;;;;;;;7.22;96.87;103960.84;5053307;28;20032;-56
2021/12/17 12:59:54;;;;;;;17.27;7.35;;;;;;;7.24;97.30;103976.09;5055323;28;20052;-57
2021/12/17 13:02:21;;;;;;;17.70;7.68;;;;;;;7.23;97.21;103977.16;5055094;28;20057;-56
2021/12/17 13:04:46;;;;;;;19.40;8.63;;;;;;;7.18;96.39;103983.28;5054918;28;20079;-58
2021/12/17 13:07:14;;;;;;;18.40;7.85;;;;;;;7.15;97.05;103978.19;5052065;28;20040;-57
2021/12/17 13:09:44;;;;;;;18.23;8.10;;;;;;;7.09;96.25;103973.50;5032862;28;20033;-57
2021/12/17 13:12:10;;;;;;;17.73;7.25;;;;;;;7.09;96.92;103978.16;5033036;28;20036;-57
2021/12/17 13:14:44;;;;;;;16.80;7.60;;;;;;;7.11;97.59;103973.28;5032836;28;20026;-57
2021/12/17 13:17:40;;;;;;;17.80;7.65;;;;;;;7.13;97.71;103969.28;5032873;28;20025;-57
2021/12/17 13:20:41;;;;;;;;;;;;;;;7.20;97.58;103973.97;5032958;28;20063;-57
2021/12/17 13:23:12;;;;;;;17.02;7.30;;;;;;;7.15;97.54;103964.41;5032555;28;19921;-56
2021/12/17 13:25:38;;;;;;;17.17;7.22;;;;;;;7.11;96.96;103967.78;5032668;28;20037;-57
2021/12/17 13:28:03;;;;;;;15.95;7.15;;;;;;;7.10;97.18;103957.81;5032449;28;20034;-57
2021/12/17 13:30:29;;;;;;;17.02;8.38;;;;;;;7.16;98.03;103960.63;5032669;28;20041;-56
2021/12/17 13:32:54;;;;;;;16.77;7.90;;;;;;;7.18;97.71;103961.25;5032431;28;20049;-57
2021/12/17 13:35:22;;;;;;;16.80;7.45;;;;;;;7.16;96.78;103957.03;5032882;28;20029;-57
2021/12/17 13:37:52;;;;;;;16.73;7.65;;;;;;;7.15;96.63;103960.81;5031661;28;20040;-57
2021/12/17 13:40:23;;;;;;;16.50;6.90;;;;;;;7.12;96.89;103973.09;5032419;28;20179;-57
2021/12/17 13:42:49;;;;;;;16.27;6.57;;;;;;;7.14;96.73;103965.47;5030328;28;20397;-57
2021/12/17 13:45:17;;;;;;;17.10;7.00;;;;;;;7.11;97.10;103963.16;5032684;28;20028;-57
2021/12/17 13:47:47;;;;;;;16.13;7.38;;;;;;;7.14;96.95;103967.38;5032534;28;20051;-57
2021/12/17 13:50:19;;;;;;;18.05;7.32;;;;;;;7.10;97.29;103960.56;5032194;28;20464;-58
2021/12/17 13:52:49;;;;;;;16.98;7.30;;;;;;;7.16;97.67;103973.53;5030988;28;20053;-57
2021/12/17 13:55:18;;;;;;;18.17;7.22;;;;;;;7.11;96.75;103962.28;5032067;28;20029;-57
2021/12/17 13:57:43;;;;;;;15.40;7.00;;;;;;;7.15;96.51;103969.09;5031927;28;20030;-57